Time;durP1;ratioP1;P1;durP2;ratioP2;P2;SDS_P1;SDS_P2;PMS_P1;PMS_P2;Temp;Humidity;BMP_temperature;BMP_pressure;BME280_temperature;BME280_humidity;BME280_pressure;Samples;Min_cycle;Max_cycle;Signal;HPM_P1;HPM_P2
2021/03/03 00:01:44;;;;;;;20.90;11.63;;;8.60;99.90;;;;;;5019302;28;20555;-72
2021/03/03 00:04:09;;;;;;;18.63;11.47;;;8.50;99.90;;;;;;5037548;28;20421;-72
2021/03/03 00:06:35;;;;;;;17.93;12.87;;;8.50;99.90;;;;;;5019072;28;20773;-71
2021/03/03 00:09:00;;;;;;;19.23;12.37;;;8.50;99.90;;;;;;5036624;28;20265;-72
2021/03/03 00:11:26;;;;;;;19.87;11.43;;;8.50;99.90;;;;;;5037097;28;20195;-72
2021/03/03 00:13:51;;;;;;;16.43;11.57;;;8.50;99.90;;;;;;5037449;28;20604;-72
2021/03/03 00:16:17;;;;;;;16.10;11.77;;;8.50;99.90;;;;;;5018911;28;20182;-72
2021/03/03 00:18:43;;;;;;;16.60;11.87;;;8.50;99.90;;;;;;5037031;28;20178;-70
2021/03/03 00:21:08;;;;;;;16.57;11.20;;;8.40;99.90;;;;;;5037452;28;20258;-72
2021/03/03 00:23:34;;;;;;;15.60;12.20;;;8.40;99.90;;;;;;5036429;28;20196;-72
2021/03/03 00:25:59;;;;;;;15.50;10.87;;;8.40;99.90;;;;;;5018919;28;20203;-71
2021/03/03 00:28:25;;;;;;;18.70;11.90;;;8.40;99.90;;;;;;5019207;28;20635;-71
2021/03/03 00:30:50;;;;;;;17.23;11.33;;;8.30;99.90;;;;;;5036270;28;20214;-71
2021/03/03 00:33:16;;;;;;;18.17;12.40;;;8.30;99.90;;;;;;5018392;28;20166;-71
2021/03/03 00:35:41;;;;;;;15.63;11.93;;;8.30;99.90;;;;;;5036116;28;20171;-71
2021/03/03 00:38:07;;;;;;;19.17;12.03;;;8.30;99.90;;;;;;5035899;28;20227;-70
2021/03/03 00:40:33;;;;;;;18.23;12.70;;;8.30;99.90;;;;;;5036041;28;20245;-70
2021/03/03 00:42:59;;;;;;;17.13;11.53;;;8.30;99.90;;;;;;5035815;28;20609;-71
2021/03/03 00:45:25;;;;;;;18.27;12.37;;;8.30;99.90;;;;;;5036465;28;20183;-71
2021/03/03 00:47:50;;;;;;;19.77;11.90;;;8.30;99.90;;;;;;5018622;28;20442;-71
2021/03/03 00:50:16;;;;;;;14.43;10.03;;;8.20;99.90;;;;;;5036013;28;20426;-71
2021/03/03 00:52:42;;;;;;;16.07;11.07;;;8.20;99.90;;;;;;5036014;28;20252;-71
2021/03/03 00:55:08;;;;;;;15.40;11.30;;;8.20;99.90;;;;;;5035646;28;20830;-71
2021/03/03 00:57:33;;;;;;;18.60;12.60;;;8.20;99.90;;;;;;5036245;28;20253;-71
2021/03/03 00:59:59;;;;;;;16.60;11.37;;;8.20;99.90;;;;;;5035433;28;20549;-71
2021/03/03 01:02:24;;;;;;;19.77;12.30;;;8.20;99.90;;;;;;5035608;28;20175;-71
2021/03/03 01:04:51;;;;;;;18.60;12.30;;;8.20;99.90;;;;;;5035497;28;20190;-71
2021/03/03 01:07:16;;;;;;;18.13;11.60;;;8.20;99.90;;;;;;5035436;28;20704;-71
2021/03/03 01:09:42;;;;;;;20.00;12.30;;;8.10;99.90;;;;;;5034999;28;20451;-71
2021/03/03 01:12:08;;;;;;;15.23;10.87;;;8.10;99.90;;;;;;5034847;28;20194;-71
2021/03/03 01:14:33;;;;;;;15.67;10.73;;;8.10;99.90;;;;;;5036085;28;20168;-71
2021/03/03 01:16:59;;;;;;;16.40;11.03;;;8.10;99.90;;;;;;5035023;28;20476;-71
2021/03/03 01:19:24;;;;;;;15.90;11.57;;;8.10;99.90;;;;;;5034959;28;20173;-71
2021/03/03 01:21:50;;;;;;;15.53;10.67;;;8.10;99.90;;;;;;5035119;28;20232;-71
2021/03/03 01:24:16;;;;;;;19.33;11.20;;;8.10;99.90;;;;;;5017168;28;20315;-71
2021/03/03 01:26:42;;;;;;;14.40;10.93;;;8.10;99.90;;;;;;5035045;28;20175;-71
2021/03/03 01:29:07;;;;;;;15.10;11.50;;;8.00;99.90;;;;;;5034956;28;20513;-71
2021/03/03 01:31:33;;;;;;;16.30;11.33;;;8.00;99.90;;;;;;5035023;28;20927;-71
2021/03/03 01:34:00;;;;;;;16.47;11.60;;;8.00;99.90;;;;;;5035039;28;20416;-70
2021/03/03 01:36:26;;;;;;;17.97;11.50;;;8.00;99.90;;;;;;5017299;28;20176;-70
2021/03/03 01:38:52;;;;;;;14.73;11.20;;;8.00;99.90;;;;;;5034143;28;20826;-71
2021/03/03 01:41:18;;;;;;;20.43;11.30;;;8.00;99.90;;;;;;5034900;28;20463;-71
2021/03/03 01:43:43;;;;;;;15.13;10.20;;;8.00;99.90;;;;;;5035210;28;20413;-71
2021/03/03 01:46:09;;;;;;;15.50;11.17;;;8.00;99.90;;;;;;5034703;28;20175;-70
2021/03/03 01:48:34;;;;;;;14.50;11.17;;;8.00;99.90;;;;;;5034514;28;20168;-70
2021/03/03 01:51:01;;;;;;;18.13;12.80;;;8.00;99.90;;;;;;5033988;28;20440;-71
2021/03/03 01:53:27;;;;;;;13.57;10.83;;;8.00;99.90;;;;;;5034721;28;20432;-70
2021/03/03 01:55:56;;;;;;;18.37;12.37;;;8.00;99.90;;;;;;5034483;28;20477;-72
2021/03/03 01:58:22;;;;;;;16.13;11.60;;;8.00;99.90;;;;;;5034150;28;20958;-71
2021/03/03 02:00:48;;;;;;;18.17;11.63;;;8.00;99.90;;;;;;5017004;28;20459;-71
2021/03/03 02:03:13;;;;;;;19.67;12.57;;;7.90;99.90;;;;;;5034226;28;20174;-71
2021/03/03 02:05:39;;;;;;;17.00;12.00;;;7.90;99.90;;;;;;5034534;28;20418;-71
2021/03/03 02:08:15;;;;;;;18.07;12.40;;;7.90;99.90;;;;;;5033910;28;20186;-71
2021/03/03 02:11:00;;;;;;;17.90;11.50;;;7.90;99.90;;;;;;5028347;28;20201;-71
2021/03/03 02:13:34;;;;;;;17.93;11.70;;;7.90;99.90;;;;;;5033198;28;20469;-71
2021/03/03 02:16:03;;;;;;;20.17;11.87;;;7.90;99.90;;;;;;5034182;28;20410;-71
2021/03/03 02:18:31;;;;;;;18.33;11.20;;;7.80;99.90;;;;;;5034137;28;20893;-71
2021/03/03 02:20:56;;;;;;;18.37;11.40;;;7.80;99.90;;;;;;5034309;28;20459;-72
2021/03/03 02:23:41;;;;;;;17.33;11.47;;;7.70;99.90;;;;;;5034181;28;20407;-71
2021/03/03 02:26:07;;;;;;;15.97;11.50;;;7.80;99.90;;;;;;5033886;28;20189;-71
2021/03/03 02:28:33;;;;;;;16.10;11.40;;;7.80;99.90;;;;;;5033535;28;20853;-71
2021/03/03 02:30:59;;;;;;;17.30;12.43;;;7.80;99.90;;;;;;5016139;28;20566;-71
2021/03/03 02:33:25;;;;;;;15.30;10.67;;;7.80;99.90;;;;;;5033027;28;20426;-71
2021/03/03 02:35:52;;;;;;;16.90;10.80;;;7.80;99.90;;;;;;5034345;28;20416;-72
2021/03/03 02:38:18;;;;;;;17.67;11.97;;;7.80;99.90;;;;;;5033689;28;20413;-71
2021/03/03 02:40:45;;;;;;;16.40;11.70;;;7.80;99.90;;;;;;5015680;28;20465;-71
2021/03/03 02:43:18;;;;;;;21.17;12.47;;;7.80;99.90;;;;;;5016055;28;20945;-71
2021/03/03 02:45:46;;;;;;;15.87;10.70;;;7.70;99.90;;;;;;5033852;28;20426;-71
2021/03/03 02:48:13;;;;;;;13.30;10.20;;;7.60;99.90;;;;;;5033695;28;20406;-71
2021/03/03 02:50:39;;;;;;;19.17;12.80;;;7.60;99.90;;;;;;5033646;28;20426;-71
2021/03/03 02:53:04;;;;;;;16.27;12.20;;;7.60;99.90;;;;;;5032042;28;20970;-71
2021/03/03 02:55:30;;;;;;;16.50;11.33;;;7.60;99.90;;;;;;5033675;28;20209;-72
2021/03/03 02:57:57;;;;;;;19.53;11.23;;;7.60;99.90;;;;;;5033927;28;20173;-71
2021/03/03 03:00:41;;;;;;;16.33;11.67;;;7.50;99.90;;;;;;5033930;28;20207;-71
2021/03/03 03:03:22;;;;;;;16.40;11.23;;;7.50;99.90;;;;;;5034587;28;20417;-71
2021/03/03 03:05:59;;;;;;;16.93;11.50;;;7.50;99.90;;;;;;5016187;28;20919;-72
2021/03/03 03:08:28;;;;;;;16.47;11.93;;;7.50;99.90;;;;;;5049021;28;20409;-72
2021/03/03 03:10:54;;;;;;;18.00;11.93;;;7.40;99.90;;;;;;5050845;28;20472;-72
2021/03/03 03:13:21;;;;;;;15.77;10.87;;;7.30;99.90;;;;;;5035717;28;20956;-72
2021/03/03 03:15:50;;;;;;;18.00;12.30;;;7.30;99.90;;;;;;5054421;28;20406;-72
2021/03/03 03:18:19;;;;;;;17.90;11.50;;;7.30;99.90;;;;;;5038159;28;20426;-72
2021/03/03 03:20:47;;;;;;;18.27;11.20;;;7.30;99.90;;;;;;5040597;28;20457;-72
2021/03/03 03:23:14;;;;;;;17.13;11.30;;;7.30;99.90;;;;;;5033916;28;20417;-71
2021/03/03 03:25:40;;;;;;;19.30;12.13;;;7.30;99.90;;;;;;5034313;28;20863;-71
2021/03/03 03:28:06;;;;;;;14.00;11.13;;;7.30;99.90;;;;;;5034169;28;20402;-71
2021/03/03 03:30:34;;;;;;;16.40;10.50;;;7.40;99.90;;;;;;5034055;28;20495;-71
2021/03/03 03:33:00;;;;;;;18.90;12.00;;;7.30;99.90;;;;;;5034159;28;20855;-71
2021/03/03 03:35:27;;;;;;;17.00;11.50;;;7.30;99.90;;;;;;5036458;28;20426;-71
2021/03/03 03:37:53;;;;;;;19.67;12.73;;;7.20;99.90;;;;;;5037094;28;20409;-71
2021/03/03 03:40:20;;;;;;;17.73;11.83;;;7.30;99.90;;;;;;5037367;28;20966;-71
2021/03/03 03:42:46;;;;;;;18.37;12.00;;;7.30;99.90;;;;;;5037070;28;20894;-71
2021/03/03 03:45:14;;;;;;;19.50;11.93;;;7.30;99.90;;;;;;5036898;28;20509;-71
2021/03/03 03:47:42;;;;;;;16.73;12.47;;;7.30;99.90;;;;;;5038213;28;20854;-71
2021/03/03 03:50:08;;;;;;;18.30;12.20;;;7.30;99.90;;;;;;5038075;28;20507;-70
2021/03/03 03:52:35;;;;;;;19.20;11.47;;;7.30;99.90;;;;;;5038749;28;20507;-71
2021/03/03 03:55:01;;;;;;;16.93;11.50;;;7.30;99.90;;;;;;5038216;28;20506;-71
2021/03/03 03:57:27;;;;;;;17.10;12.30;;;7.30;99.90;;;;;;5037272;28;20414;-71
2021/03/03 03:59:53;;;;;;;19.00;13.32;;;7.30;99.90;;;;;;5036249;28;20413;-71
2021/03/03 04:02:18;;;;;;;17.80;11.80;;;7.40;99.90;;;;;;5036884;28;20636;-71
2021/03/03 04:04:44;;;;;;;16.47;11.73;;;7.40;99.90;;;;;;5037013;28;20167;-71
2021/03/03 04:07:10;;;;;;;16.90;11.90;;;7.30;99.90;;;;;;5036802;28;20253;-71
2021/03/03 04:09:36;;;;;;;21.20;13.00;;;7.20;99.90;;;;;;5036064;28;20567;-72
2021/03/03 04:12:02;;;;;;;20.60;12.67;;;7.20;99.90;;;;;;5036742;28;20403;-71
2021/03/03 04:14:28;;;;;;;15.77;10.40;;;7.20;99.90;;;;;;5036762;28;20664;-71
2021/03/03 04:16:53;;;;;;;15.73;10.87;;;7.20;99.90;;;;;;5035959;28;20452;-71
2021/03/03 04:19:19;;;;;;;19.57;12.40;;;7.20;99.90;;;;;;5036733;28;20197;-71
2021/03/03 04:21:45;;;;;;;20.50;12.03;;;7.20;99.90;;;;;;5036262;28;20226;-71
2021/03/03 04:24:12;;;;;;;17.77;11.67;;;7.20;99.90;;;;;;5036580;28;20407;-71
2021/03/03 04:26:37;;;;;;;18.90;12.00;;;7.20;99.90;;;;;;5035698;28;20429;-71
2021/03/03 04:29:03;;;;;;;20.13;11.60;;;7.20;99.90;;;;;;5035794;28;20425;-71
2021/03/03 04:31:32;;;;;;;17.07;11.40;;;7.20;99.90;;;;;;5036002;28;20211;-71
2021/03/03 04:33:57;;;;;;;18.93;12.60;;;7.20;99.90;;;;;;5036407;28;20221;-71
2021/03/03 04:36:23;;;;;;;19.77;13.17;;;7.20;99.90;;;;;;5037034;28;20437;-71
2021/03/03 04:38:49;;;;;;;16.10;11.37;;;7.20;99.90;;;;;;5037677;28;20629;-72
2021/03/03 04:41:14;;;;;;;16.80;12.20;;;7.20;99.90;;;;;;5037829;28;21016;-71
2021/03/03 04:43:40;;;;;;;15.60;10.93;;;7.20;99.90;;;;;;5037723;28;20254;-71
2021/03/03 04:46:05;;;;;;;18.67;12.37;;;7.30;99.90;;;;;;5036348;28;20179;-71
2021/03/03 04:48:31;;;;;;;19.00;12.80;;;7.30;99.90;;;;;;5035621;28;20202;-71
2021/03/03 04:50:56;;;;;;;17.23;11.50;;;7.30;99.90;;;;;;5035947;28;20195;-71
2021/03/03 04:53:23;;;;;;;21.03;11.37;;;7.30;99.90;;;;;;5035905;28;20200;-71
2021/03/03 04:55:49;;;;;;;18.97;13.03;;;7.40;99.90;;;;;;5035813;28;20176;-72
2021/03/03 04:58:14;;;;;;;18.70;12.47;;;7.40;99.90;;;;;;5035939;28;20429;-71
2021/03/03 05:00:40;;;;;;;15.30;11.10;;;7.40;99.90;;;;;;5035473;28;20265;-71
2021/03/03 05:03:05;;;;;;;17.23;11.37;;;7.40;99.90;;;;;;5035276;28;20256;-71
2021/03/03 05:05:31;;;;;;;16.10;11.63;;;7.40;99.90;;;;;;5035388;28;20226;-71
2021/03/03 05:07:56;;;;;;;18.17;11.73;;;7.40;99.90;;;;;;5034943;28;20200;-71
2021/03/03 05:10:22;;;;;;;18.33;12.67;;;7.40;99.90;;;;;;5035504;28;20214;-71
2021/03/03 05:12:47;;;;;;;17.53;12.73;;;7.40;99.90;;;;;;5035317;28;20183;-71
2021/03/03 05:15:14;;;;;;;19.97;11.50;;;7.40;99.90;;;;;;5035969;28;20171;-71
2021/03/03 05:17:39;;;;;;;18.77;12.67;;;7.40;99.90;;;;;;5035426;28;20253;-71
2021/03/03 05:20:06;;;;;;;18.10;12.00;;;7.50;99.90;;;;;;5035138;28;20979;-71
2021/03/03 05:22:33;;;;;;;19.07;13.33;;;7.50;99.90;;;;;;5035353;28;20524;-71
2021/03/03 05:24:58;;;;;;;15.90;11.13;;;7.50;99.90;;;;;;5035614;28;20497;-71
2021/03/03 05:27:24;;;;;;;19.23;12.60;;;7.50;99.90;;;;;;5035418;28;20493;-71
2021/03/03 05:29:49;;;;;;;17.43;11.83;;;7.50;99.90;;;;;;5035095;28;20202;-71
2021/03/03 05:32:15;;;;;;;20.40;12.23;;;7.50;99.90;;;;;;5034820;28;20190;-71
2021/03/03 05:34:40;;;;;;;16.10;11.73;;;7.40;99.90;;;;;;5034912;28;20168;-72
2021/03/03 05:37:06;;;;;;;20.23;12.27;;;7.40;99.90;;;;;;5034995;28;20524;-72
2021/03/03 05:39:31;;;;;;;17.73;12.37;;;7.40;99.90;;;;;;5034558;28;20260;-72
2021/03/03 05:42:01;;;;;;;16.50;11.63;;;7.40;99.90;;;;;;5034642;28;20226;-72
2021/03/03 05:44:28;;;;;;;17.77;10.90;;;7.40;99.90;;;;;;5017369;28;20190;-71
2021/03/03 05:46:57;;;;;;;23.07;12.23;;;7.40;99.90;;;;;;5035341;28;20459;-71
2021/03/03 05:49:25;;;;;;;16.10;11.30;;;7.40;99.90;;;;;;5034533;28;20417;-71
2021/03/03 05:51:55;;;;;;;19.37;12.37;;;7.40;99.90;;;;;;5025251;28;20427;-72
2021/03/03 05:54:21;;;;;;;20.13;12.73;;;7.30;99.90;;;;;;5006179;28;20416;-71
2021/03/03 05:56:49;;;;;;;17.63;12.30;;;7.30;99.90;;;;;;5027758;28;20860;-71
2021/03/03 05:59:16;;;;;;;17.03;12.27;;;7.30;99.90;;;;;;5030861;28;20433;-71
2021/03/03 06:01:45;;;;;;;16.93;11.60;;;7.30;99.90;;;;;;5029389;28;20748;-71
2021/03/03 06:04:11;;;;;;;18.93;12.43;;;7.30;99.90;;;;;;5023730;28;20466;-71
2021/03/03 06:06:43;;;;;;;17.97;11.63;;;7.30;99.90;;;;;;5014793;28;20403;-71
2021/03/03 06:09:09;;;;;;;20.10;12.27;;;7.30;99.90;;;;;;5024985;28;20750;-72
2021/03/03 06:11:35;;;;;;;21.27;13.10;;;7.30;99.90;;;;;;5019899;28;20519;-71
2021/03/03 06:14:01;;;;;;;20.13;12.57;;;7.40;99.90;;;;;;5025150;28;20186;-72
2021/03/03 06:16:27;;;;;;;17.90;12.33;;;7.40;99.90;;;;;;5007082;28;20948;-72
2021/03/03 06:18:55;;;;;;;17.50;12.90;;;7.40;99.90;;;;;;5023453;28;20191;-72
2021/03/03 06:21:32;;;;;;;21.97;12.97;;;7.40;99.90;;;;;;5019858;28;20556;-72
2021/03/03 06:24:07;;;;;;;22.47;12.60;;;7.40;99.90;;;;;;5028337;28;20513;-72
2021/03/03 06:26:34;;;;;;;20.27;13.43;;;7.40;99.90;;;;;;5023277;28;20403;-72
2021/03/03 06:29:03;;;;;;;20.70;12.77;;;7.40;99.90;;;;;;5020503;28;20422;-72
2021/03/03 06:31:37;;;;;;;17.77;12.60;;;7.40;99.90;;;;;;5022585;28;20457;-72
2021/03/03 06:34:24;;;;;;;19.40;11.93;;;7.50;99.90;;;;;;5031696;28;20453;-72
2021/03/03 06:37:01;;;;;;;18.77;13.07;;;7.50;99.90;;;;;;5038056;28;20497;-71
2021/03/03 06:39:29;;;;;;;17.23;12.27;;;7.40;99.90;;;;;;5019296;28;20417;-71
2021/03/03 06:41:57;;;;;;;18.13;11.90;;;7.40;99.90;;;;;;5054562;28;20441;-72
2021/03/03 06:44:27;;;;;;;20.67;12.60;;;7.40;99.90;;;;;;5037808;28;20415;-71
2021/03/03 06:47:05;;;;;;;21.93;13.17;;;7.40;99.90;;;;;;5045698;28;20915;-71
2021/03/03 06:49:30;;;;;;;21.80;12.37;;;7.40;99.90;;;;;;5036826;28;20449;-72
2021/03/03 06:51:56;;;;;;;20.23;13.87;;;7.40;99.90;;;;;;5034807;28;20774;-72
2021/03/03 06:54:25;;;;;;;20.07;12.37;;;7.50;99.90;;;;;;5034821;28;20190;-72
2021/03/03 06:56:52;;;;;;;20.00;12.60;;;7.50;99.90;;;;;;5028797;28;20207;-72
2021/03/03 06:59:32;;;;;;;19.73;13.73;;;7.50;99.90;;;;;;5033931;28;20405;-72
2021/03/03 07:01:59;;;;;;;33.17;14.83;;;7.50;99.90;;;;;;5032704;28;20455;-71
2021/03/03 07:04:32;;;;;;;19.87;13.37;;;7.50;99.90;;;;;;5027898;28;20449;-71
2021/03/03 07:07:00;;;;;;;20.43;14.20;;;7.50;99.90;;;;;;5033955;28;20412;-72
2021/03/03 07:09:40;;;;;;;18.00;12.60;;;7.60;99.90;;;;;;5033380;28;20402;-72
2021/03/03 07:12:16;;;;;;;24.33;14.27;;;7.60;99.90;;;;;;5033744;28;20416;-72
2021/03/03 07:14:44;;;;;;;19.43;13.33;;;7.70;99.90;;;;;;5034449;28;20429;-72
2021/03/03 07:17:10;;;;;;;22.07;13.20;;;7.70;99.90;;;;;;5034000;28;20422;-72
2021/03/03 07:19:40;;;;;;;22.37;14.50;;;7.70;99.90;;;;;;5033419;28;20440;-72
2021/03/03 07:22:29;;;;;;;25.37;14.70;;;7.70;99.90;;;;;;5034153;28;20557;-71
2021/03/03 07:25:00;;;;;;;20.80;13.47;;;7.80;99.90;;;;;;5034531;28;20402;-72
2021/03/03 07:27:27;;;;;;;19.83;13.30;;;7.80;99.90;;;;;;5034773;28;20766;-72
2021/03/03 07:29:58;;;;;;;23.23;14.30;;;7.80;99.90;;;;;;5034413;28;20433;-72
2021/03/03 07:32:23;;;;;;;23.13;13.00;;;7.80;99.90;;;;;;5035204;28;20797;-72
2021/03/03 07:34:52;;;;;;;23.20;14.00;;;7.80;99.90;;;;;;5035040;28;20423;-72
2021/03/03 07:37:20;;;;;;;18.33;12.77;;;7.80;99.90;;;;;;5014023;28;20988;-72
2021/03/03 07:39:49;;;;;;;25.20;13.33;;;7.90;99.90;;;;;;5033108;28;20511;-72
2021/03/03 07:42:27;;;;;;;23.10;14.37;;;7.90;99.90;;;;;;5019991;28;20588;-71
2021/03/03 07:44:57;;;;;;;20.47;14.57;;;7.90;99.90;;;;;;5029578;28;20519;-72
2021/03/03 07:47:25;;;;;;;19.30;13.67;;;8.00;99.90;;;;;;5032338;28;20529;-71
2021/03/03 07:49:52;;;;;;;23.10;13.60;;;8.00;99.90;;;;;;5032741;28;20430;-72
2021/03/03 07:52:19;;;;;;;21.20;15.07;;;8.00;99.90;;;;;;5033610;28;20412;-71
2021/03/03 07:54:44;;;;;;;22.63;14.63;;;8.10;99.90;;;;;;5030470;28;20984;-71
2021/03/03 07:57:12;;;;;;;25.50;14.80;;;8.10;99.90;;;;;;5028545;28;20435;-71
2021/03/03 07:59:43;;;;;;;25.60;16.40;;;8.10;99.90;;;;;;5029538;28;20891;-72
2021/03/03 08:02:10;;;;;;;21.53;15.40;;;8.20;99.90;;;;;;5030097;28;20252;-71
2021/03/03 08:04:36;;;;;;;26.03;15.43;;;8.30;99.90;;;;;;5014874;28;20505;-71
2021/03/03 08:07:14;;;;;;;23.57;15.40;;;8.40;99.90;;;;;;5032429;28;20428;-72
2021/03/03 08:10:00;;;;;;;22.52;15.88;;;8.40;99.90;;;;;;5032597;28;20520;-72
2021/03/03 08:12:26;;;;;;;25.03;15.93;;;8.50;99.90;;;;;;5013220;28;20194;-70
2021/03/03 08:14:51;;;;;;;22.10;15.53;;;8.70;99.90;;;;;;5016328;28;20422;-73
2021/03/03 08:17:26;;;;;;;28.03;16.60;;;8.80;99.90;;;;;;5032790;28;20191;-72
2021/03/03 08:19:58;;;;;;;27.37;15.03;;;8.90;99.90;;;;;;5015568;28;20270;-72
2021/03/03 08:22:50;;;;;;;25.73;14.90;;;9.00;99.90;;;;;;5036202;28;20421;-72
2021/03/03 08:25:47;;;;;;;23.67;15.30;;;9.10;99.90;;;;;;5029057;28;20419;-72
2021/03/03 08:28:27;;;;;;;26.17;15.63;;;9.20;99.90;;;;;;5016090;28;20421;-71
2021/03/03 08:31:05;;;;;;;23.90;15.33;;;9.30;99.90;;;;;;5016486;28;20455;-71
2021/03/03 08:33:31;;;;;;;22.30;16.20;;;9.50;99.90;;;;;;5016631;28;20406;-70
2021/03/03 08:35:57;;;;;;;20.57;14.80;;;9.60;99.90;;;;;;5019334;28;20475;-72
2021/03/03 08:38:23;;;;;;;19.60;14.13;;;9.70;99.90;;;;;;5017840;28;20532;-72
2021/03/03 08:40:48;;;;;;;22.30;14.23;;;9.80;99.90;;;;;;5035931;28;20199;-71
2021/03/03 08:43:36;;;;;;;28.37;16.57;;;9.90;99.90;;;;;;5035756;28;20198;-72
2021/03/03 08:46:23;;;;;;;23.50;14.83;;;9.90;99.80;;;;;;5036189;28;20662;-71
2021/03/03 08:48:57;;;;;;;24.40;15.80;;;10.00;99.20;;;;;;5034767;28;20891;-71
2021/03/03 08:51:29;;;;;;;22.33;15.70;;;10.10;99.20;;;;;;5017892;28;20456;-72
2021/03/03 08:54:18;;;;;;;24.93;16.77;;;10.20;99.20;;;;;;5036182;28;20410;-72
2021/03/03 08:56:45;;;;;;;21.97;15.47;;;10.20;99.10;;;;;;5035273;28;20418;-72
2021/03/03 08:59:12;;;;;;;28.03;16.53;;;10.30;99.00;;;;;;5035291;28;20429;-71
2021/03/03 09:01:58;;;;;;;28.77;16.97;;;10.40;98.80;;;;;;5035779;28;20468;-72
2021/03/03 09:04:44;;;;;;;25.57;16.30;;;10.40;98.70;;;;;;5035519;28;20491;-71
2021/03/03 09:07:27;;;;;;;26.77;16.70;;;10.50;98.60;;;;;;5036073;28;20414;-72
2021/03/03 09:10:01;;;;;;;25.73;15.83;;;10.50;98.40;;;;;;5034988;28;20479;-71
2021/03/03 09:12:28;;;;;;;23.60;16.10;;;10.60;98.40;;;;;;5035604;28;20489;-72
2021/03/03 09:14:59;;;;;;;26.43;16.90;;;10.60;98.30;;;;;;5035113;28;20422;-71
2021/03/03 09:17:30;;;;;;;24.80;16.10;;;10.60;98.30;;;;;;5035578;28;20495;-71
2021/03/03 09:19:57;;;;;;;22.17;16.73;;;10.70;98.20;;;;;;5034686;28;20442;-71
2021/03/03 09:22:34;;;;;;;23.83;16.33;;;10.70;98.10;;;;;;5035166;28;20465;-71
2021/03/03 09:25:15;;;;;;;22.27;15.73;;;10.80;98.10;;;;;;5035567;28;20498;-72
2021/03/03 09:27:51;;;;;;;29.17;17.10;;;10.80;98.00;;;;;;5035019;28;20434;-72
2021/03/03 09:30:17;;;;;;;27.67;16.23;;;10.90;97.90;;;;;;5034970;28;20456;-71
2021/03/03 09:32:43;;;;;;;24.10;16.20;;;11.00;97.80;;;;;;5034555;28;20430;-71
2021/03/03 09:35:10;;;;;;;18.57;14.40;;;11.10;97.70;;;;;;5035685;28;20416;-72
2021/03/03 09:37:41;;;;;;;24.30;17.20;;;11.10;97.70;;;;;;5031710;28;20274;-70
2021/03/03 09:40:10;;;;;;;25.87;16.50;;;11.20;97.40;;;;;;5032153;28;20488;-71
2021/03/03 09:42:44;;;;;;;25.00;15.07;;;11.30;97.30;;;;;;5033555;28;20414;-73
2021/03/03 09:45:31;;;;;;;27.37;16.10;;;11.40;96.80;;;;;;5033891;28;20468;-72
2021/03/03 09:47:57;;;;;;;24.67;15.77;;;11.50;96.40;;;;;;5034582;28;20429;-72
2021/03/03 09:50:30;;;;;;;21.03;14.73;;;11.70;95.80;;;;;;5035137;28;20736;-72
2021/03/03 09:52:57;;;;;;;28.27;16.00;;;11.80;95.60;;;;;;5017356;28;20512;-72
2021/03/03 09:55:32;;;;;;;25.30;16.20;;;12.00;95.40;;;;;;5035418;28;20420;-72
2021/03/03 09:57:59;;;;;;;23.60;14.70;;;12.10;95.10;;;;;;5034515;28;20409;-72
2021/03/03 10:00:41;;;;;;;22.70;14.90;;;12.30;95.00;;;;;;5013508;28;20527;-72
2021/03/03 10:03:14;;;;;;;27.07;14.70;;;12.40;94.50;;;;;;5035395;28;20471;-71
2021/03/03 10:05:41;;;;;;;26.10;15.70;;;12.50;94.30;;;;;;5037603;28;20456;-72
2021/03/03 10:08:12;;;;;;;28.10;15.43;;;12.60;94.10;;;;;;5046102;28;20405;-72
2021/03/03 10:10:40;;;;;;;21.87;14.97;;;12.70;94.00;;;;;;5044465;28;20906;-71
2021/03/03 10:13:06;;;;;;;24.20;15.33;;;12.80;93.70;;;;;;5037233;28;20737;-72
2021/03/03 10:15:39;;;;;;;24.77;15.70;;;12.80;93.80;;;;;;5050861;28;20456;-71
2021/03/03 10:18:08;;;;;;;24.23;16.47;;;12.90;93.80;;;;;;5050453;28;20472;-72
2021/03/03 10:20:48;;;;;;;22.63;14.57;;;12.90;93.80;;;;;;5033749;28;20467;-72
2021/03/03 10:23:16;;;;;;;21.70;15.73;;;12.90;93.70;;;;;;5033356;28;20468;-71
2021/03/03 10:26:07;;;;;;;29.90;16.20;;;13.00;93.80;;;;;;5033017;28;20449;-72
2021/03/03 10:28:34;;;;;;;24.47;17.37;;;13.10;93.80;;;;;;5033965;28;20440;-72
2021/03/03 10:31:02;;;;;;;23.33;15.60;;;13.10;93.50;;;;;;5033673;28;20957;-71
2021/03/03 10:33:41;;;;;;;24.00;17.65;;;13.10;93.60;;;;;;5032482;28;20809;-72
2021/03/03 10:36:19;;;;;;;25.17;16.70;;;13.30;93.90;;;;;;5034655;28;20262;-71
2021/03/03 10:38:54;;;;;;;24.33;15.20;;;13.40;94.60;;;;;;5034177;28;20405;-71
2021/03/03 10:41:33;;;;;;;27.10;18.93;;;13.50;94.90;;;;;;5015953;28;20472;-71
2021/03/03 10:44:01;;;;;;;30.20;19.23;;;13.60;94.60;;;;;;5032489;28;20918;-71
2021/03/03 10:46:27;;;;;;;28.13;18.17;;;13.80;95.00;;;;;;5033257;28;20433;-71
2021/03/03 10:49:09;;;;;;;26.27;17.67;;;13.80;94.30;;;;;;5015564;28;20409;-72
2021/03/03 10:51:36;;;;;;;23.00;16.87;;;13.90;94.20;;;;;;5033805;28;20444;-72
2021/03/03 10:54:02;;;;;;;30.53;19.77;;;14.00;94.50;;;;;;5033201;28;20460;-72
2021/03/03 10:56:30;;;;;;;28.03;20.87;;;14.10;95.30;;;;;;5033405;28;20770;-73
2021/03/03 10:59:10;;;;;;;29.53;19.90;;;14.20;94.20;;;;;;5033691;28;20405;-71
2021/03/03 11:01:46;;;;;;;34.57;23.00;;;14.30;95.10;;;;;;5015390;28;20962;-73
2021/03/03 11:04:12;;;;;;;31.27;22.93;;;14.40;94.90;;;;;;5033017;28;20456;-72
2021/03/03 11:06:38;;;;;;;35.67;24.73;;;14.50;94.20;;;;;;5033313;28;20778;-72
2021/03/03 11:09:07;;;;;;;34.80;23.23;;;14.40;93.90;;;;;;5029956;28;20417;-71
2021/03/03 11:11:33;;;;;;;32.33;20.50;;;14.40;94.00;;;;;;5029801;28;20449;-71
2021/03/03 11:13:58;;;;;;;27.30;20.10;;;14.40;93.80;;;;;;5028446;28;20430;-71
2021/03/03 11:16:24;;;;;;;34.10;23.90;;;14.50;94.70;;;;;;5032512;28;20420;-71
2021/03/03 11:18:50;;;;;;;38.30;25.93;;;14.70;94.90;;;;;;5015641;28;20735;-72
2021/03/03 11:21:16;;;;;;;36.77;25.40;;;14.70;94.00;;;;;;5029754;28;20317;-72
2021/03/03 11:23:41;;;;;;;31.73;23.37;;;14.70;93.70;;;;;;5029225;28;21050;-72
2021/03/03 11:26:07;;;;;;;26.90;20.80;;;14.90;94.30;;;;;;5033255;28;20216;-72
2021/03/03 11:28:33;;;;;;;31.53;22.60;;;15.00;94.20;;;;;;5031847;28;20256;-71
2021/03/03 11:30:58;;;;;;;38.50;27.33;;;15.00;93.70;;;;;;5031064;28;20676;-72
2021/03/03 11:33:24;;;;;;;30.87;23.17;;;14.90;93.60;;;;;;5033678;28;20647;-72
2021/03/03 11:35:50;;;;;;;30.70;22.03;;;15.00;93.60;;;;;;5016935;28;20189;-71
2021/03/03 11:38:15;;;;;;;31.37;22.67;;;14.90;93.30;;;;;;5034824;28;20186;-72
2021/03/03 11:40:41;;;;;;;36.10;24.73;;;14.90;93.30;;;;;;5027996;28;20223;-72
2021/03/03 11:43:38;;;;;;;35.40;22.47;;;15.00;93.40;;;;;;5033759;28;20175;-72
2021/03/03 11:48:55;;;;;;;31.83;22.37;;;15.00;92.70;;;;;;4972122;28;20232;-73
2021/03/03 11:51:21;;;;;;;35.00;21.10;;;15.00;92.60;;;;;;4965747;28;20479;-72
2021/03/03 11:53:46;;;;;;;29.57;21.30;;;15.20;92.50;;;;;;4958344;28;20197;-72
2021/03/03 11:56:12;;;;;;;31.37;22.30;;;15.20;92.40;;;;;;4956580;28;20185;-71
2021/03/03 11:58:37;;;;;;;27.70;19.67;;;15.10;92.10;;;;;;4965723;28;20579;-72
2021/03/03 12:01:04;;;;;;;29.70;19.60;;;15.10;91.80;;;;;;4968323;28;20551;-72
2021/03/03 12:03:30;;;;;;;29.27;21.13;;;15.20;92.10;;;;;;4956002;28;20177;-73
2021/03/03 12:05:55;;;;;;;29.60;21.23;;;15.20;92.00;;;;;;4958043;28;20413;-73
2021/03/03 12:08:21;;;;;;;30.07;21.60;;;15.20;91.90;;;;;;4975405;28;20263;-72
2021/03/03 12:10:46;;;;;;;30.70;21.10;;;15.20;92.00;;;;;;4975651;28;20541;-72
2021/03/03 12:13:12;;;;;;;27.93;19.67;;;15.20;91.90;;;;;;4975563;28;20220;-73
2021/03/03 12:15:37;;;;;;;32.67;21.20;;;15.20;91.80;;;;;;4960497;28;20552;-72
2021/03/03 12:18:03;;;;;;;31.73;20.33;;;15.10;91.60;;;;;;4974627;28;20200;-73
2021/03/03 12:20:29;;;;;;;31.03;20.40;;;15.00;91.70;;;;;;4977858;28;20356;-73
2021/03/03 12:22:56;;;;;;;28.77;19.50;;;15.00;91.80;;;;;;4977835;28;20177;-72
2021/03/03 12:25:23;;;;;;;28.73;20.40;;;15.10;91.80;;;;;;4987956;28;20469;-72
2021/03/03 12:27:48;;;;;;;28.80;19.13;;;15.00;91.70;;;;;;5018925;28;20493;-71
2021/03/03 12:30:14;;;;;;;25.27;18.37;;;15.10;91.70;;;;;;5016476;28;20457;-71
2021/03/03 12:32:40;;;;;;;28.67;18.87;;;15.20;91.60;;;;;;5015907;28;20203;-72
2021/03/03 12:35:06;;;;;;;27.33;17.43;;;15.20;91.40;;;;;;5026905;28;20428;-72
2021/03/03 12:37:32;;;;;;;24.70;17.37;;;15.20;91.30;;;;;;5036586;28;20250;-72
2021/03/03 12:39:57;;;;;;;26.57;20.60;;;15.30;91.10;;;;;;5033416;28;20690;-72
2021/03/03 12:42:23;;;;;;;30.07;21.27;;;15.40;91.20;;;;;;5034842;28;20719;-72
2021/03/03 12:44:49;;;;;;;26.90;18.93;;;15.40;91.20;;;;;;5026170;28;20216;-73